Time;durP1;ratioP1;P1;durP2;ratioP2;P2;SDS_P1;SDS_P2;PMS_P1;PMS_P2;Temp;Humidity;BMP_temperature;BMP_pressure;BME280_temperature;BME280_humidity;BME280_pressure;Samples;Min_cycle;Max_cycle;Signal;HPM_P1;HPM_P2
2024/03/28 00:03:20;;;;;;;;;;;2.40;99.90;;;;;;21079332;28;19912;-78
2024/03/28 00:13:22;;;;;;;;;;;2.40;99.90;;;;;;21088526;28;19928;-77
2024/03/28 00:23:23;;;;;;;;;;;2.50;99.90;;;;;;21097569;28;19920;-77
2024/03/28 00:33:23;;;;;;;;;;;2.50;99.90;;;;;;21094176;28;20302;-77
2024/03/28 00:43:24;;;;;;;;;;;2.40;99.90;;;;;;21093497;28;19912;-77
2024/03/28 00:53:25;;;;;;;;;;;2.30;99.90;;;;;;21083745;28;19961;-77
2024/03/28 01:03:25;;;;;;;;;;;2.10;99.90;;;;;;21080777;28;19912;-78
2024/03/28 01:13:26;;;;;;;;;;;2.10;99.90;;;;;;21089531;28;20331;-78
2024/03/28 01:23:27;;;;;;;;;;;2.00;99.90;;;;;;21080079;28;19916;-77
2024/03/28 01:33:28;;;;;;;;;;;2.10;99.90;;;;;;21081451;28;19927;-77
2024/03/28 01:43:29;;;;;;;;;;;2.10;99.90;;;;;;21072138;28;19913;-79
2024/03/28 01:53:29;;;;;;;;;;;2.00;99.90;;;;;;21086084;28;19919;-78
2024/03/28 02:03:30;;;;;;;;;;;2.00;99.90;;;;;;21097870;28;19950;-78
2024/03/28 02:13:31;;;;;;;;;;;1.90;99.90;;;;;;21096777;28;19938;-78
2024/03/28 02:23:31;;;;;;;;;;;1.70;99.90;;;;;;21082389;28;20290;-78
2024/03/28 02:33:32;;;;;;;;;;;1.90;99.90;;;;;;21075306;28;19996;-76
2024/03/28 02:43:33;;;;;;;;;;;1.70;99.90;;;;;;21065889;28;20007;-77
2024/03/28 02:53:33;;;;;;;;;;;1.50;99.90;;;;;;21076602;28;19916;-77
2024/03/28 03:03:34;;;;;;;;;;;0.90;99.90;;;;;;21086491;28;19934;-77
2024/03/28 03:13:35;;;;;;;;;;;1.70;99.90;;;;;;21083447;28;20010;-77
2024/03/28 03:23:37;;;;;;;;;;;1.90;99.90;;;;;;21087306;28;20425;-77
2024/03/28 03:43:57;;;;;;;;;;;1.90;99.90;;;;;;21080557;28;19916;-76
2024/03/28 03:53:58;;;;;;;;;;;2.00;99.90;;;;;;21084684;28;19927;-77
2024/03/28 04:03:58;;;;;;;;;;;2.00;99.90;;;;;;21081326;28;19957;-77
2024/03/28 04:13:59;;;;;;;;;;;2.10;99.90;;;;;;21093383;28;20003;-77
2024/03/28 04:24:01;;;;;;;;;;;2.30;99.90;;;;;;21091701;28;19935;-78
2024/03/28 04:34:01;;;;;;;;;;;2.40;99.90;;;;;;21099386;28;19923;-77
2024/03/28 04:44:02;;;;;;;;;;;2.10;99.90;;;;;;21093723;28;19912;-78
2024/03/28 04:54:03;;;;;;;;;;;2.10;99.90;;;;;;21090637;28;19970;-78
2024/03/28 05:04:03;;;;;;;;;;;2.20;99.90;;;;;;21089458;28;19913;-77
2024/03/28 05:14:04;;;;;;;;;;;2.30;99.90;;;;;;21088944;28;19927;-77
2024/03/28 05:24:05;;;;;;;;;;;2.40;99.90;;;;;;21082320;28;19912;-78
2024/03/28 05:34:06;;;;;;;;;;;2.50;99.90;;;;;;21086861;28;20463;-77
2024/03/28 05:44:07;;;;;;;;;;;2.60;99.90;;;;;;21079836;28;19926;-78
2024/03/28 05:54:07;;;;;;;;;;;2.60;99.90;;;;;;21095228;28;19920;-78
2024/03/28 06:04:08;;;;;;;;;;;2.50;99.90;;;;;;21081896;28;20264;-78
2024/03/28 06:14:09;;;;;;;;;;;2.60;99.90;;;;;;21084931;28;19923;-78
2024/03/28 06:24:10;;;;;;;;;;;2.50;99.90;;;;;;21081422;28;20350;-78
2024/03/28 06:34:11;;;;;;;;;;;2.50;99.90;;;;;;21084027;28;20035;-77
2024/03/28 06:44:11;;;;;;;;;;;2.80;99.90;;;;;;21089567;28;19959;-77
2024/03/28 06:54:12;;;;;;;;;;;3.00;99.90;;;;;;21086949;28;20028;-77
2024/03/28 07:04:13;;;;;;;;;;;3.10;99.90;;;;;;21084036;28;20002;-77
2024/03/28 07:14:14;;;;;;;;;;;3.10;99.90;;;;;;21085761;28;19959;-77
2024/03/28 07:24:15;;;;;;;;;;;3.20;99.90;;;;;;21089166;28;20314;-77
2024/03/28 07:34:15;;;;;;;;;;;3.20;99.90;;;;;;21085571;28;19923;-77
2024/03/28 07:44:16;;;;;;;;;;;3.40;99.90;;;;;;21084269;28;19912;-77
2024/03/28 07:54:17;;;;;;;;;;;3.40;99.90;;;;;;21079774;28;19970;-77
2024/03/28 08:04:18;;;;;;;;;;;3.50;99.90;;;;;;21083453;28;19912;-77
2024/03/28 08:14:19;;;;;;;;;;;3.70;99.90;;;;;;21083263;28;19920;-77
2024/03/28 08:24:25;;;;;;;;;;;3.80;99.90;;;;;;21083036;28;19982;-76
2024/03/28 08:34:25;;;;;;;;;;;4.10;99.90;;;;;;21075850;28;20068;-77
2024/03/28 08:44:26;;;;;;;;;;;4.40;99.90;;;;;;21072875;28;19912;-78
2024/03/28 08:54:27;;;;;;;;;;;4.90;99.90;;;;;;21077741;28;20000;-78
2024/03/28 09:04:29;;;;;;;;;;;5.20;99.90;;;;;;21080403;28;19918;-77
2024/03/28 09:14:30;;;;;;;;;;;5.40;99.90;;;;;;21066339;28;20267;-77
2024/03/28 09:24:32;;;;;;;;;;;5.80;99.90;;;;;;21075828;28;19912;-77
2024/03/28 09:34:32;;;;;;;;;;;6.00;99.90;;;;;;21075557;28;19923;-77
2024/03/28 09:44:35;;;;;;;;;;;6.30;99.90;;;;;;21069679;28;20386;-77
2024/03/28 09:54:39;;;;;;;;;;;6.50;99.90;;;;;;21075755;28;19916;-77
2024/03/28 10:04:43;;;;;;;;;;;7.10;99.90;;;;;;21076398;28;21297;-77
2024/03/28 10:14:54;;;;;;;;;;;6.70;99.90;;;;;;21073715;28;19955;-76
2024/03/28 10:24:56;;;;;;;;;;;7.40;99.90;;;;;;21065118;28;21391;-76
2024/03/28 10:34:57;;;;;;;;;;;8.20;99.90;;;;;;21072704;28;20302;-76
2024/03/28 10:44:59;;;;;;;;;;;8.10;99.90;;;;;;21072478;28;19919;-76
2024/03/28 10:55:04;;;;;;;;;;;7.90;99.90;;;;;;21073081;28;19920;-77
2024/03/28 11:05:06;;;;;;;;;;;8.40;99.90;;;;;;21071888;28;19916;-76
2024/03/28 11:15:09;;;;;;;;;;;8.80;99.90;;;;;;21071435;28;20481;-75
2024/03/28 11:25:28;;;;;;;;;;;8.80;99.90;;;;;;21086243;28;19912;-77
2024/03/28 11:35:29;;;;;;;;;;;9.50;99.90;;;;;;21047046;28;19928;-78
2024/03/28 11:45:30;;;;;;;;;;;12.00;99.90;;;;;;21053005;28;19935;-77
2024/03/28 11:55:31;;;;;;;;;;;12.50;99.90;;;;;;21079491;28;19986;-78
2024/03/28 12:05:32;;;;;;;;;;;11.30;99.90;;;;;;21037913;28;19963;-77
2024/03/28 12:15:32;;;;;;;;;;;11.60;99.90;;;;;;21047407;28;19969;-77
2024/03/28 12:25:33;;;;;;;;;;;11.30;99.90;;;;;;21034251;28;19912;-77
2024/03/28 12:35:34;;;;;;;;;;;12.50;99.90;;;;;;21061093;28;19916;-78
2024/03/28 12:45:35;;;;;;;;;;;12.10;99.90;;;;;;21036757;28;19925;-77
2024/03/28 12:55:35;;;;;;;;;;;12.30;99.90;;;;;;21041275;28;19932;-77
2024/03/28 13:05:36;;;;;;;;;;;11.40;99.90;;;;;;21027237;28;19936;-77
2024/03/28 13:15:36;;;;;;;;;;;11.20;99.90;;;;;;21018291;28;19916;-78
2024/03/28 13:25:37;;;;;;;;;;;11.60;99.90;;;;;;21046825;28;19913;-78
2024/03/28 13:35:38;;;;;;;;;;;11.50;99.90;;;;;;21033896;28;19916;-79
2024/03/28 13:45:38;;;;;;;;;;;12.00;99.90;;;;;;21030425;28;19916;-78
2024/03/28 13:55:40;;;;;;;;;;;11.90;99.90;;;;;;21019658;28;19964;-79
2024/03/28 14:05:40;;;;;;;;;;;11.70;99.90;;;;;;21061680;28;19966;-78
2024/03/28 14:15:41;;;;;;;;;;;11.70;99.90;;;;;;21036324;28;19920;-79
2024/03/28 14:25:41;;;;;;;;;;;12.00;99.90;;;;;;21026549;28;19917;-79
2024/03/28 14:35:42;;;;;;;;;;;12.40;99.90;;;;;;21030308;28;19962;-79
2024/03/28 14:45:43;;;;;;;;;;;12.40;99.90;;;;;;21034590;28;20312;-79
2024/03/28 14:55:51;;;;;;;;;;;12.30;99.90;;;;;;21045667;28;19924;-79
2024/03/28 15:05:52;;;;;;;;;;;12.10;99.90;;;;;;21042300;28;19912;-79
2024/03/28 15:15:53;;;;;;;;;;;12.00;99.90;;;;;;21041566;28;19925;-79
2024/03/28 15:25:55;;;;;;;;;;;12.90;99.90;;;;;;21036554;28;19916;-79
2024/03/28 15:35:56;;;;;;;;;;;12.20;99.90;;;;;;21032757;28;20012;-78
2024/03/28 15:45:56;;;;;;;;;;;12.20;99.90;;;;;;21030758;28;20387;-78
2024/03/28 15:56:02;;;;;;;;;;;11.80;99.90;;;;;;21042407;28;19916;-79
2024/03/28 16:06:12;;;;;;;;;;;12.00;99.90;;;;;;21022012;28;19966;-77
2024/03/28 16:16:12;;;;;;;;;;;12.10;99.90;;;;;;21020113;28;19924;-78
2024/03/28 16:26:13;;;;;;;;;;;11.70;99.90;;;;;;21034311;28;20011;-78
2024/03/28 16:36:14;;;;;;;;;;;11.50;99.90;;;;;;21027260;28;20358;-78
2024/03/28 16:46:14;;;;;;;;;;;11.30;99.90;;;;;;21018846;28;19913;-78
2024/03/28 16:56:16;;;;;;;;;;;11.00;99.90;;;;;;21018445;28;19923;-79
2024/03/28 17:06:16;;;;;;;;;;;10.90;99.90;;;;;;21035318;28;19916;-79
2024/03/28 17:16:18;;;;;;;;;;;11.00;99.90;;;;;;21029427;28;20073;-77
2024/03/28 17:26:19;;;;;;;;;;;10.70;99.90;;;;;;21027773;28;19919;-78
2024/03/28 17:36:19;;;;;;;;;;;10.60;99.90;;;;;;21095607;28;20453;-79
2024/03/28 17:46:20;;;;;;;;;;;10.10;99.90;;;;;;21091690;28;19983;-76
2024/03/28 17:56:21;;;;;;;;;;;9.70;99.90;;;;;;21081717;28;19923;-77
2024/03/28 18:06:21;;;;;;;;;;;9.30;99.90;;;;;;21092737;28;19918;-78
2024/03/28 18:16:22;;;;;;;;;;;8.70;99.90;;;;;;21095614;28;20002;-79
2024/03/28 18:26:22;;;;;;;;;;;8.00;99.90;;;;;;21097791;28;19963;-79
2024/03/28 18:36:23;;;;;;;;;;;7.90;99.90;;;;;;21101632;28;19927;-79
2024/03/28 18:46:25;;;;;;;;;;;7.50;99.90;;;;;;21095651;28;19912;-77
2024/03/28 18:56:28;;;;;;;;;;;7.50;99.90;;;;;;21099414;28;20298;-79
2024/03/28 19:06:29;;;;;;;;;;;7.30;99.90;;;;;;21097749;28;19916;-77
2024/03/28 19:16:30;;;;;;;;;;;6.70;99.90;;;;;;21094723;28;19920;-79
2024/03/28 19:26:30;;;;;;;;;;;6.50;99.90;;;;;;21094545;28;20344;-80
2024/03/28 19:36:36;;;;;;;;;;;6.10;99.90;;;;;;21100605;28;19916;-80
2024/03/28 19:46:36;;;;;;;;;;;6.10;99.90;;;;;;21111214;28;19965;-79
2024/03/28 19:56:37;;;;;;;;;;;6.00;99.90;;;;;;21115129;28;19916;-79
2024/03/28 20:06:38;;;;;;;;;;;5.80;99.90;;;;;;21116915;28;20488;-80
2024/03/28 20:16:38;;;;;;;;;;;5.60;99.90;;;;;;21108144;28;20010;-78
2024/03/28 20:26:39;;;;;;;;;;;5.60;99.90;;;;;;21102067;28;19916;-79
2024/03/28 20:36:42;;;;;;;;;;;5.30;99.90;;;;;;21109163;28;19920;-80
2024/03/28 20:46:43;;;;;;;;;;;5.30;99.90;;;;;;21098513;28;20939;-80
2024/03/28 20:56:44;;;;;;;;;;;5.00;99.90;;;;;;21110212;28;19959;-79
2024/03/28 21:17:11;;;;;;;;;;;4.60;99.90;;;;;;21097502;28;19954;-80
2024/03/28 21:27:11;;;;;;;;;;;3.80;99.90;;;;;;21054639;28;19912;-78
2024/03/28 21:37:13;;;;;;;;;;;4.10;99.90;;;;;;21050234;28;19954;-79
2024/03/28 21:47:14;;;;;;;;;;;3.90;99.90;;;;;;21058759;28;19919;-79
2024/03/28 21:57:14;;;;;;;;;;;3.60;99.90;;;;;;21058300;28;19916;-78
2024/03/28 22:07:16;;;;;;;;;;;4.40;99.90;;;;;;21030911;28;20357;-79
2024/03/28 22:17:16;;;;;;;;;;;4.40;99.90;;;;;;21031410;28;19969;-77
2024/03/28 22:27:17;;;;;;;;;;;4.50;99.90;;;;;;21076016;28;20371;-77
2024/03/28 22:37:18;;;;;;;;;;;4.80;99.90;;;;;;21091761;28;19995;-79
2024/03/28 22:47:18;;;;;;;;;;;4.70;99.90;;;;;;21097894;28;19912;-77
2024/03/28 22:57:19;;;;;;;;;;;4.60;99.90;;;;;;21097781;28;20231;-79
2024/03/28 23:07:21;;;;;;;;;;;4.30;99.90;;;;;;21093547;28;19916;-80
2024/03/28 23:17:22;;;;;;;;;;;4.70;99.90;;;;;;21046208;28;19971;-80
2024/03/28 23:27:22;;;;;;;;;;;4.60;99.90;;;;;;21087056;28;19996;-79
2024/03/28 23:37:23;;;;;;;;;;;4.90;99.90;;;;;;21084357;28;19959;-80
2024/03/28 23:47:24;;;;;;;;;;;4.80;99.90;;;;;;21103210;28;19912;-79
2024/03/28 23:57:24;;;;;;;;;;;5.10;99.90;;;;;;21110651;28;19916;-79
